sensor_id;sensor_type;location;lat;lon;timestamp;P1;durP1;ratioP1;P2;durP2;ratioP2
76103;SDS011;64831;44.870;37.336;2023-02-22T00:00:53;4.95;;;1.25;;
76103;SDS011;64831;44.870;37.336;2023-02-22T00:03:25;2.70;;;1.08;;
76103;SDS011;64831;44.870;37.336;2023-02-22T00:05:55;2.17;;;0.90;;
76103;SDS011;64831;44.870;37.336;2023-02-22T00:08:25;6.32;;;1.67;;
76103;SDS011;64831;44.870;37.336;2023-02-22T00:10:55;17.08;;;1.45;;
76103;SDS011;64831;44.870;37.336;2023-02-22T00:13:22;2.50;;;1.17;;
76103;SDS011;64831;44.870;37.336;2023-02-22T00:15:48;7.22;;;1.05;;
76103;SDS011;64831;44.870;37.336;2023-02-22T00:18:15;1.55;;;0.80;;
76103;SDS011;64831;44.870;37.336;2023-02-22T00:20:42;3.60;;;1.10;;
76103;SDS011;64831;44.870;37.336;2023-02-22T00:23:13;4.05;;;1.00;;
76103;SDS011;64831;44.870;37.336;2023-02-22T00:25:43;6.05;;;2.20;;
76103;SDS011;64831;44.870;37.336;2023-02-22T00:28:10;6.32;;;0.90;;
76103;SDS011;64831;44.870;37.336;2023-02-22T00:30:37;3.70;;;1.35;;
76103;SDS011;64831;44.870;37.336;2023-02-22T00:33:03;9.25;;;1.83;;
76103;SDS011;64831;44.870;37.336;2023-02-22T00:35:32;2.53;;;1.15;;
76103;SDS011;64831;44.870;37.336;2023-02-22T00:37:58;3.03;;;0.93;;
76103;SDS011;64831;44.870;37.336;2023-02-22T00:40:27;3.75;;;1.10;;
76103;SDS011;64831;44.870;37.336;2023-02-22T00:42:57;4.13;;;1.23;;
76103;SDS011;64831;44.870;37.336;2023-02-22T00:45:26;4.80;;;1.45;;
76103;SDS011;64831;44.870;37.336;2023-02-22T00:47:54;4.30;;;1.15;;
76103;SDS011;64831;44.870;37.336;2023-02-22T00:50:21;4.28;;;1.20;;
76103;SDS011;64831;44.870;37.336;2023-02-22T00:52:49;4.70;;;1.92;;
76103;SDS011;64831;44.870;37.336;2023-02-22T00:55:20;1.70;;;0.90;;
76103;SDS011;64831;44.870;37.336;2023-02-22T00:57:51;3.03;;;0.80;;
76103;SDS011;64831;44.870;37.336;2023-02-22T01:00:22;4.93;;;1.27;;
76103;SDS011;64831;44.870;37.336;2023-02-22T01:02:52;2.55;;;1.05;;
76103;SDS011;64831;44.870;37.336;2023-02-22T01:05:21;3.45;;;0.90;;
76103;SDS011;64831;44.870;37.336;2023-02-22T01:07:52;3.88;;;1.40;;
76103;SDS011;64831;44.870;37.336;2023-02-22T01:10:20;5.53;;;1.00;;
76103;SDS011;64831;44.870;37.336;2023-02-22T01:12:49;5.33;;;1.70;;
76103;SDS011;64831;44.870;37.336;2023-02-22T01:15:17;5.03;;;0.95;;
76103;SDS011;64831;44.870;37.336;2023-02-22T01:17:47;7.15;;;1.00;;
76103;SDS011;64831;44.870;37.336;2023-02-22T01:20:15;2.28;;;0.80;;
76103;SDS011;64831;44.870;37.336;2023-02-22T01:22:43;4.43;;;1.13;;
76103;SDS011;64831;44.870;37.336;2023-02-22T01:25:11;6.67;;;1.07;;
76103;SDS011;64831;44.870;37.336;2023-02-22T01:30:06;0.98;;;0.82;;
76103;SDS011;64831;44.870;37.336;2023-02-22T01:32:37;3.80;;;1.42;;
76103;SDS011;64831;44.870;37.336;2023-02-22T01:35:05;3.75;;;1.55;;
76103;SDS011;64831;44.870;37.336;2023-02-22T01:37:33;5.43;;;1.30;;
76103;SDS011;64831;44.870;37.336;2023-02-22T01:39:59;6.40;;;1.10;;
76103;SDS011;64831;44.870;37.336;2023-02-22T01:42:26;2.55;;;0.82;;
76103;SDS011;64831;44.870;37.336;2023-02-22T01:50:48;3.13;;;1.02;;
76103;SDS011;64831;44.870;37.336;2023-02-22T01:53:23;5.15;;;1.25;;
76103;SDS011;64831;44.870;37.336;2023-02-22T01:55:52;4.25;;;1.35;;
76103;SDS011;64831;44.870;37.336;2023-02-22T01:58:20;3.83;;;1.08;;
76103;SDS011;64831;44.870;37.336;2023-02-22T02:00:50;1.92;;;0.95;;
76103;SDS011;64831;44.870;37.336;2023-02-22T02:03:18;5.18;;;1.23;;
76103;SDS011;64831;44.870;37.336;2023-02-22T02:05:49;1.75;;;0.93;;
76103;SDS011;64831;44.870;37.336;2023-02-22T02:08:24;1.98;;;0.95;;
76103;SDS011;64831;44.870;37.336;2023-02-22T02:11:15;3.08;;;1.10;;
76103;SDS011;64831;44.870;37.336;2023-02-22T02:13:45;2.03;;;0.90;;
76103;SDS011;64831;44.870;37.336;2023-02-22T02:16:11;5.00;;;1.27;;
76103;SDS011;64831;44.870;37.336;2023-02-22T02:18:37;4.40;;;1.02;;
76103;SDS011;64831;44.870;37.336;2023-02-22T02:23:47;5.57;;;1.15;;
76103;SDS011;64831;44.870;37.336;2023-02-22T02:26:36;3.50;;;0.77;;
76103;SDS011;64831;44.870;37.336;2023-02-22T02:29:23;4.32;;;1.00;;
76103;SDS011;64831;44.870;37.336;2023-02-22T02:37:55;4.13;;;1.20;;
76103;SDS011;64831;44.870;37.336;2023-02-22T02:40:44;3.20;;;1.05;;
76103;SDS011;64831;44.870;37.336;2023-02-22T02:46:11;4.88;;;1.35;;
76103;SDS011;64831;44.870;37.336;2023-02-22T02:48:53;9.07;;;1.35;;
76103;SDS011;64831;44.870;37.336;2023-02-22T02:51:23;6.80;;;1.50;;
76103;SDS011;64831;44.870;37.336;2023-02-22T02:53:54;7.43;;;1.27;;
76103;SDS011;64831;44.870;37.336;2023-02-22T02:56:22;7.25;;;1.48;;
76103;SDS011;64831;44.870;37.336;2023-02-22T02:58:50;5.18;;;1.40;;
76103;SDS011;64831;44.870;37.336;2023-02-22T03:01:28;3.90;;;1.20;;
76103;SDS011;64831;44.870;37.336;2023-02-22T03:07:09;1.40;;;0.90;;
76103;SDS011;64831;44.870;37.336;2023-02-22T03:22:58;4.55;;;1.50;;
76103;SDS011;64831;44.870;37.336;2023-02-22T03:25:33;4.82;;;1.45;;
76103;SDS011;64831;44.870;37.336;2023-02-22T03:28:13;4.63;;;0.90;;
76103;SDS011;64831;44.870;37.336;2023-02-22T03:30:49;4.32;;;1.30;;
76103;SDS011;64831;44.870;37.336;2023-02-22T03:36:13;6.57;;;1.55;;
76103;SDS011;64831;44.870;37.336;2023-02-22T03:38:47;4.63;;;1.52;;
76103;SDS011;64831;44.870;37.336;2023-02-22T03:41:15;3.92;;;1.38;;
76103;SDS011;64831;44.870;37.336;2023-02-22T03:43:48;3.45;;;1.20;;
76103;SDS011;64831;44.870;37.336;2023-02-22T03:46:19;8.68;;;1.67;;
76103;SDS011;64831;44.870;37.336;2023-02-22T03:51:22;2.63;;;0.95;;
76103;SDS011;64831;44.870;37.336;2023-02-22T03:53:53;3.72;;;0.80;;
76103;SDS011;64831;44.870;37.336;2023-02-22T03:56:27;1.75;;;0.75;;
76103;SDS011;64831;44.870;37.336;2023-02-22T03:59:06;2.60;;;1.02;;
76103;SDS011;64831;44.870;37.336;2023-02-22T04:01:34;1.77;;;0.73;;
76103;SDS011;64831;44.870;37.336;2023-02-22T04:04:00;1.90;;;0.70;;
76103;SDS011;64831;44.870;37.336;2023-02-22T04:06:26;0.98;;;0.80;;
76103;SDS011;64831;44.870;37.336;2023-02-22T04:08:54;5.32;;;1.63;;
76103;SDS011;64831;44.870;37.336;2023-02-22T04:11:21;1.58;;;0.80;;
76103;SDS011;64831;44.870;37.336;2023-02-22T04:13:48;7.28;;;1.10;;
76103;SDS011;64831;44.870;37.336;2023-02-22T04:16:14;6.57;;;1.00;;
76103;SDS011;64831;44.870;37.336;2023-02-22T04:18:40;4.53;;;1.42;;
76103;SDS011;64831;44.870;37.336;2023-02-22T04:21:06;6.07;;;1.08;;
76103;SDS011;64831;44.870;37.336;2023-02-22T04:23:40;1.23;;;1.00;;
76103;SDS011;64831;44.870;37.336;2023-02-22T04:26:07;2.65;;;1.20;;
76103;SDS011;64831;44.870;37.336;2023-02-22T04:28:33;9.20;;;2.10;;
76103;SDS011;64831;44.870;37.336;2023-02-22T04:31:08;6.75;;;1.35;;
76103;SDS011;64831;44.870;37.336;2023-02-22T04:33:34;12.55;;;1.67;;
76103;SDS011;64831;44.870;37.336;2023-02-22T04:36:00;3.97;;;1.42;;
76103;SDS011;64831;44.870;37.336;2023-02-22T04:40:57;4.00;;;1.63;;
76103;SDS011;64831;44.870;37.336;2023-02-22T04:43:25;2.47;;;1.17;;
76103;SDS011;64831;44.870;37.336;2023-02-22T04:45:55;7.57;;;1.50;;
76103;SDS011;64831;44.870;37.336;2023-02-22T04:48:22;3.72;;;0.85;;
76103;SDS011;64831;44.870;37.336;2023-02-22T04:50:48;2.47;;;1.13;;
76103;SDS011;64831;44.870;37.336;2023-02-22T04:53:15;5.20;;;1.30;;
76103;SDS011;64831;44.870;37.336;2023-02-22T04:55:41;5.60;;;1.55;;
76103;SDS011;64831;44.870;37.336;2023-02-22T04:58:07;5.85;;;1.25;;
76103;SDS011;64831;44.870;37.336;2023-02-22T05:00:33;4.30;;;1.20;;
76103;SDS011;64831;44.870;37.336;2023-02-22T05:03:01;2.50;;;1.23;;
76103;SDS011;64831;44.870;37.336;2023-02-22T05:05:27;3.83;;;0.88;;
76103;SDS011;64831;44.870;37.336;2023-02-22T05:07:53;3.20;;;1.15;;
76103;SDS011;64831;44.870;37.336;2023-02-22T05:10:19;2.60;;;1.63;;
76103;SDS011;64831;44.870;37.336;2023-02-22T05:12:45;1.40;;;0.90;;
76103;SDS011;64831;44.870;37.336;2023-02-22T05:15:14;5.53;;;1.25;;
76103;SDS011;64831;44.870;37.336;2023-02-22T05:17:42;1.85;;;0.90;;
76103;SDS011;64831;44.870;37.336;2023-02-22T05:20:09;8.38;;;1.88;;
76103;SDS011;64831;44.870;37.336;2023-02-22T05:22:53;5.50;;;1.30;;
76103;SDS011;64831;44.870;37.336;2023-02-22T05:25:19;3.38;;;0.93;;
76103;SDS011;64831;44.870;37.336;2023-02-22T05:27:51;3.50;;;1.52;;
76103;SDS011;64831;44.870;37.336;2023-02-22T05:30:29;4.60;;;1.38;;
76103;SDS011;64831;44.870;37.336;2023-02-22T05:32:58;2.95;;;1.05;;
76103;SDS011;64831;44.870;37.336;2023-02-22T05:35:25;4.47;;;1.42;;
76103;SDS011;64831;44.870;37.336;2023-02-22T05:37:52;2.63;;;1.40;;
76103;SDS011;64831;44.870;37.336;2023-02-22T05:40:18;4.90;;;1.50;;
76103;SDS011;64831;44.870;37.336;2023-02-22T05:42:46;3.10;;;1.33;;
76103;SDS011;64831;44.870;37.336;2023-02-22T05:45:14;1.63;;;1.20;;
76103;SDS011;64831;44.870;37.336;2023-02-22T05:47:41;5.18;;;1.63;;
76103;SDS011;64831;44.870;37.336;2023-02-22T05:50:08;2.92;;;0.93;;
76103;SDS011;64831;44.870;37.336;2023-02-22T05:52:34;5.25;;;1.75;;
76103;SDS011;64831;44.870;37.336;2023-02-22T05:55:00;7.45;;;1.50;;
76103;SDS011;64831;44.870;37.336;2023-02-22T05:57:26;7.15;;;1.67;;
76103;SDS011;64831;44.870;37.336;2023-02-22T05:59:52;3.50;;;1.20;;
76103;SDS011;64831;44.870;37.336;2023-02-22T06:02:18;7.07;;;1.48;;
76103;SDS011;64831;44.870;37.336;2023-02-22T06:04:44;5.22;;;1.75;;
76103;SDS011;64831;44.870;37.336;2023-02-22T06:07:11;8.60;;;1.60;;
76103;SDS011;64831;44.870;37.336;2023-02-22T06:09:38;4.00;;;1.52;;
76103;SDS011;64831;44.870;37.336;2023-02-22T06:12:05;5.07;;;1.58;;
76103;SDS011;64831;44.870;37.336;2023-02-22T06:14:32;6.13;;;1.50;;
76103;SDS011;64831;44.870;37.336;2023-02-22T06:16:58;5.45;;;1.52;;
76103;SDS011;64831;44.870;37.336;2023-02-22T06:19:25;5.30;;;1.52;;
76103;SDS011;64831;44.870;37.336;2023-02-22T06:21:52;9.95;;;1.67;;
76103;SDS011;64831;44.870;37.336;2023-02-22T06:24:20;2.47;;;1.30;;
76103;SDS011;64831;44.870;37.336;2023-02-22T06:26:57;4.75;;;1.45;;
76103;SDS011;64831;44.870;37.336;2023-02-22T06:29:24;5.72;;;1.42;;
76103;SDS011;64831;44.870;37.336;2023-02-22T06:31:51;1.23;;;0.90;;
76103;SDS011;64831;44.870;37.336;2023-02-22T06:34:18;4.68;;;1.20;;
76103;SDS011;64831;44.870;37.336;2023-02-22T06:36:44;4.93;;;1.15;;
76103;SDS011;64831;44.870;37.336;2023-02-22T06:39:12;3.92;;;1.05;;
76103;SDS011;64831;44.870;37.336;2023-02-22T06:41:40;9.65;;;1.65;;
76103;SDS011;64831;44.870;37.336;2023-02-22T06:46:36;3.72;;;1.13;;
76103;SDS011;64831;44.870;37.336;2023-02-22T06:49:03;9.95;;;1.25;;
76103;SDS011;64831;44.870;37.336;2023-02-22T06:51:30;1.92;;;1.13;;
76103;SDS011;64831;44.870;37.336;2023-02-22T06:54:00;2.25;;;1.05;;
76103;SDS011;64831;44.870;37.336;2023-02-22T06:56:26;5.88;;;1.65;;
76103;SDS011;64831;44.870;37.336;2023-02-22T06:58:52;6.07;;;1.58;;
76103;SDS011;64831;44.870;37.336;2023-02-22T07:01:18;6.28;;;1.13;;
76103;SDS011;64831;44.870;37.336;2023-02-22T07:03:44;6.95;;;1.20;;
76103;SDS011;64831;44.870;37.336;2023-02-22T07:06:10;2.22;;;0.90;;
76103;SDS011;64831;44.870;37.336;2023-02-22T07:08:36;2.20;;;1.20;;
76103;SDS011;64831;44.870;37.336;2023-02-22T07:11:02;5.60;;;1.00;;
76103;SDS011;64831;44.870;37.336;2023-02-22T07:13:28;1.88;;;0.85;;
76103;SDS011;64831;44.870;37.336;2023-02-22T07:15:54;1.63;;;1.30;;
76103;SDS011;64831;44.870;37.336;2023-02-22T07:18:20;7.43;;;1.58;;
76103;SDS011;64831;44.870;37.336;2023-02-22T07:20:46;3.60;;;1.20;;
76103;SDS011;64831;44.870;37.336;2023-02-22T07:23:13;8.10;;;1.50;;
76103;SDS011;64831;44.870;37.336;2023-02-22T07:25:39;4.65;;;1.30;;
76103;SDS011;64831;44.870;37.336;2023-02-22T07:28:05;3.10;;;1.08;;
76103;SDS011;64831;44.870;37.336;2023-02-22T07:30:32;4.82;;;1.15;;
76103;SDS011;64831;44.870;37.336;2023-02-22T07:32:59;2.70;;;0.98;;
76103;SDS011;64831;44.870;37.336;2023-02-22T07:35:27;4.13;;;1.52;;
76103;SDS011;64831;44.870;37.336;2023-02-22T07:37:56;3.15;;;1.30;;
76103;SDS011;64831;44.870;37.336;2023-02-22T07:40:23;3.60;;;1.85;;
76103;SDS011;64831;44.870;37.336;2023-02-22T07:45:17;5.32;;;1.33;;
76103;SDS011;64831;44.870;37.336;2023-02-22T07:47:45;3.20;;;1.52;;
76103;SDS011;64831;44.870;37.336;2023-02-22T07:50:12;4.30;;;1.52;;
76103;SDS011;64831;44.870;37.336;2023-02-22T07:52:46;2.13;;;1.13;;
76103;SDS011;64831;44.870;37.336;2023-02-22T07:55:14;3.53;;;1.25;;
76103;SDS011;64831;44.870;37.336;2023-02-22T07:57:41;6.00;;;2.05;;
76103;SDS011;64831;44.870;37.336;2023-02-22T08:00:09;1.80;;;1.38;;
76103;SDS011;64831;44.870;37.336;2023-02-22T08:02:39;11.65;;;1.40;;
76103;SDS011;64831;44.870;37.336;2023-02-22T08:05:06;6.22;;;1.40;;
76103;SDS011;64831;44.870;37.336;2023-02-22T08:07:35;2.60;;;1.33;;
76103;SDS011;64831;44.870;37.336;2023-02-22T08:10:02;3.88;;;1.40;;
76103;SDS011;64831;44.870;37.336;2023-02-22T08:12:32;3.67;;;1.63;;
76103;SDS011;64831;44.870;37.336;2023-02-22T08:15:00;8.23;;;1.83;;
76103;SDS011;64831;44.870;37.336;2023-02-22T08:17:27;5.57;;;1.70;;
76103;SDS011;64831;44.870;37.336;2023-02-22T08:19:52;3.60;;;1.60;;
76103;SDS011;64831;44.870;37.336;2023-02-22T08:22:18;5.43;;;2.03;;
76103;SDS011;64831;44.870;37.336;2023-02-22T08:24:44;3.97;;;1.92;;
76103;SDS011;64831;44.870;37.336;2023-02-22T12:10:43;6.00;;;2.05;;
76103;SDS011;64831;44.870;37.336;2023-02-22T12:13:29;1.90;;;1.10;;
76103;SDS011;64831;44.870;37.336;2023-02-22T12:18:51;4.07;;;2.28;;
76103;SDS011;64831;44.870;37.336;2023-02-22T12:21:20;4.68;;;2.20;;
76103;SDS011;64831;44.870;37.336;2023-02-22T12:23:49;1.52;;;1.20;;
76103;SDS011;64831;44.870;37.336;2023-02-22T12:26:30;2.97;;;1.65;;
76103;SDS011;64831;44.870;37.336;2023-02-22T12:29:02;3.45;;;2.10;;
76103;SDS011;64831;44.870;37.336;2023-02-22T12:31:45;6.35;;;1.42;;
76103;SDS011;64831;44.870;37.336;2023-02-22T12:36:48;4.40;;;2.67;;
76103;SDS011;64831;44.870;37.336;2023-02-22T12:42:16;8.95;;;2.17;;
76103;SDS011;64831;44.870;37.336;2023-02-22T12:44:46;4.50;;;1.73;;
76103;SDS011;64831;44.870;37.336;2023-02-22T12:47:20;4.38;;;1.70;;
76103;SDS011;64831;44.870;37.336;2023-02-22T12:49:57;5.13;;;2.05;;
76103;SDS011;64831;44.870;37.336;2023-02-22T12:52:41;3.03;;;1.65;;
76103;SDS011;64831;44.870;37.336;2023-02-22T12:58:24;3.58;;;2.20;;
76103;SDS011;64831;44.870;37.336;2023-02-22T13:00:56;5.68;;;2.55;;
76103;SDS011;64831;44.870;37.336;2023-02-22T13:03:55;3.15;;;2.08;;
76103;SDS011;64831;44.870;37.336;2023-02-22T13:17:31;3.67;;;2.20;;
76103;SDS011;64831;44.870;37.336;2023-02-22T13:27:53;2.40;;;0.95;;
76103;SDS011;64831;44.870;37.336;2023-02-22T13:30:34;2.15;;;1.58;;
76103;SDS011;64831;44.870;37.336;2023-02-22T13:36:01;2.67;;;1.83;;
76103;SDS011;64831;44.870;37.336;2023-02-22T13:52:32;3.88;;;1.75;;
76103;SDS011;64831;44.870;37.336;2023-02-22T13:55:04;6.18;;;2.10;;
76103;SDS011;64831;44.870;37.336;2023-02-22T13:57:37;4.90;;;1.65;;
76103;SDS011;64831;44.870;37.336;2023-02-22T14:14:16;4.95;;;2.15;;
76103;SDS011;64831;44.870;37.336;2023-02-22T14:16:37;9.35;;;2.33;;
76103;SDS011;64831;44.870;37.336;2023-02-22T14:21:59;2.40;;;1.33;;
76103;SDS011;64831;44.870;37.336;2023-02-22T14:27:01;4.55;;;1.98;;
76103;SDS011;64831;44.870;37.336;2023-02-22T14:29:28;0.65;;;0.65;;
76103;SDS011;64831;44.870;37.336;2023-02-22T14:32:00;4.80;;;1.38;;
76103;SDS011;64831;44.870;37.336;2023-02-22T14:37:17;3.53;;;2.00;;
76103;SDS011;64831;44.870;37.336;2023-02-22T14:39:50;9.38;;;2.20;;
76103;SDS011;64831;44.870;37.336;2023-02-22T14:42:27;3.92;;;2.03;;
76103;SDS011;64831;44.870;37.336;2023-02-22T14:47:42;2.38;;;1.67;;
76103;SDS011;64831;44.870;37.336;2023-02-22T14:50:17;6.22;;;2.60;;
76103;SDS011;64831;44.870;37.336;2023-02-22T14:53:04;5.13;;;3.00;;
76103;SDS011;64831;44.870;37.336;2023-02-22T14:55:40;4.60;;;2.03;;
76103;SDS011;64831;44.870;37.336;2023-02-22T14:58:13;3.53;;;1.70;;
76103;SDS011;64831;44.870;37.336;2023-02-22T15:00:44;4.10;;;2.20;;
76103;SDS011;64831;44.870;37.336;2023-02-22T15:03:45;6.18;;;1.65;;
76103;SDS011;64831;44.870;37.336;2023-02-22T15:06:05;4.72;;;2.00;;
76103;SDS011;64831;44.870;37.336;2023-02-22T15:08:44;4.13;;;2.35;;
76103;SDS011;64831;44.870;37.336;2023-02-22T15:11:21;5.00;;;2.55;;
76103;SDS011;64831;44.870;37.336;2023-02-22T15:13:51;4.03;;;2.25;;
76103;SDS011;64831;44.870;37.336;2023-02-22T15:16:19;4.72;;;2.25;;
76103;SDS011;64831;44.870;37.336;2023-02-22T15:18:47;10.18;;;2.60;;
76103;SDS011;64831;44.870;37.336;2023-02-22T15:21:18;4.70;;;2.30;;
76103;SDS011;64831;44.870;37.336;2023-02-22T15:26:15;3.92;;;2.28;;
76103;SDS011;64831;44.870;37.336;2023-02-22T15:28:56;4.15;;;2.40;;
76103;SDS011;64831;44.870;37.336;2023-02-22T15:31:29;4.15;;;2.25;;
76103;SDS011;64831;44.870;37.336;2023-02-22T15:36:41;5.80;;;2.10;;
76103;SDS011;64831;44.870;37.336;2023-02-22T15:39:18;6.45;;;2.60;;
76103;SDS011;64831;44.870;37.336;2023-02-22T15:44:47;4.88;;;2.47;;
76103;SDS011;64831;44.870;37.336;2023-02-22T15:47:18;4.95;;;2.40;;
76103;SDS011;64831;44.870;37.336;2023-02-22T15:55:17;9.13;;;3.40;;
76103;SDS011;64831;44.870;37.336;2023-02-22T15:57:46;6.25;;;2.55;;
76103;SDS011;64831;44.870;37.336;2023-02-22T16:00:23;4.30;;;2.22;;
76103;SDS011;64831;44.870;37.336;2023-02-22T16:03:18;7.45;;;1.52;;
76103;SDS011;64831;44.870;37.336;2023-02-22T16:05:53;6.18;;;2.55;;
76103;SDS011;64831;44.870;37.336;2023-02-22T16:08:25;8.07;;;1.77;;
76103;SDS011;64831;44.870;37.336;2023-02-22T16:11:06;11.57;;;2.60;;
76103;SDS011;64831;44.870;37.336;2023-02-22T16:13:38;2.60;;;1.77;;
76103;SDS011;64831;44.870;37.336;2023-02-22T16:18:45;7.57;;;2.92;;
76103;SDS011;64831;44.870;37.336;2023-02-22T16:21:12;9.48;;;4.82;;
76103;SDS011;64831;44.870;37.336;2023-02-22T16:23:51;12.00;;;4.55;;
76103;SDS011;64831;44.870;37.336;2023-02-22T16:26:20;12.35;;;4.70;;
76103;SDS011;64831;44.870;37.336;2023-02-22T16:28:50;7.05;;;3.30;;
76103;SDS011;64831;44.870;37.336;2023-02-22T16:31:25;9.93;;;4.72;;
76103;SDS011;64831;44.870;37.336;2023-02-22T16:33:53;8.30;;;3.67;;
76103;SDS011;64831;44.870;37.336;2023-02-22T16:36:19;10.48;;;4.47;;
76103;SDS011;64831;44.870;37.336;2023-02-22T16:38:48;4.35;;;2.05;;
76103;SDS011;64831;44.870;37.336;2023-02-22T16:41:16;13.27;;;3.67;;
76103;SDS011;64831;44.870;37.336;2023-02-22T16:43:47;13.32;;;2.40;;
76103;SDS011;64831;44.870;37.336;2023-02-22T16:46:16;8.10;;;3.15;;
76103;SDS011;64831;44.870;37.336;2023-02-22T16:48:43;11.75;;;4.72;;
76103;SDS011;64831;44.870;37.336;2023-02-22T16:51:21;15.65;;;4.80;;
76103;SDS011;64831;44.870;37.336;2023-02-22T16:53:53;14.43;;;5.10;;
76103;SDS011;64831;44.870;37.336;2023-02-22T16:56:22;11.48;;;4.95;;
76103;SDS011;64831;44.870;37.336;2023-02-22T16:58:53;10.18;;;4.90;;
76103;SDS011;64831;44.870;37.336;2023-02-22T17:01:20;11.30;;;4.68;;
76103;SDS011;64831;44.870;37.336;2023-02-22T17:03:49;6.68;;;3.17;;
76103;SDS011;64831;44.870;37.336;2023-02-22T17:06:15;7.65;;;3.72;;
76103;SDS011;64831;44.870;37.336;2023-02-22T17:08:41;14.75;;;5.57;;
76103;SDS011;64831;44.870;37.336;2023-02-22T17:11:08;16.38;;;4.80;;
76103;SDS011;64831;44.870;37.336;2023-02-22T17:13:36;12.18;;;4.43;;
76103;SDS011;64831;44.870;37.336;2023-02-22T17:16:04;11.10;;;4.35;;
76103;SDS011;64831;44.870;37.336;2023-02-22T17:18:31;11.95;;;5.30;;
76103;SDS011;64831;44.870;37.336;2023-02-22T17:20:59;12.82;;;3.90;;
76103;SDS011;64831;44.870;37.336;2023-02-22T17:23:26;6.68;;;3.35;;
76103;SDS011;64831;44.870;37.336;2023-02-22T17:25:56;15.23;;;3.75;;
76103;SDS011;64831;44.870;37.336;2023-02-22T17:28:25;8.82;;;3.55;;
76103;SDS011;64831;44.870;37.336;2023-02-22T17:30:54;14.75;;;3.72;;
76103;SDS011;64831;44.870;37.336;2023-02-22T17:33:26;7.80;;;3.85;;
76103;SDS011;64831;44.870;37.336;2023-02-22T17:35:55;7.47;;;2.60;;
76103;SDS011;64831;44.870;37.336;2023-02-22T17:38:22;6.43;;;3.03;;
76103;SDS011;64831;44.870;37.336;2023-02-22T17:40:50;6.38;;;3.28;;
76103;SDS011;64831;44.870;37.336;2023-02-22T17:43:16;8.15;;;3.30;;
76103;SDS011;64831;44.870;37.336;2023-02-22T17:45:43;4.78;;;2.92;;
76103;SDS011;64831;44.870;37.336;2023-02-22T17:48:10;9.10;;;3.55;;
76103;SDS011;64831;44.870;37.336;2023-02-22T17:50:39;4.32;;;2.58;;
76103;SDS011;64831;44.870;37.336;2023-02-22T17:53:07;5.15;;;2.38;;
76103;SDS011;64831;44.870;37.336;2023-02-22T17:55:38;6.20;;;2.22;;
76103;SDS011;64831;44.870;37.336;2023-02-22T17:58:06;7.65;;;2.90;;
76103;SDS011;64831;44.870;37.336;2023-02-22T18:00:39;3.67;;;1.95;;
76103;SDS011;64831;44.870;37.336;2023-02-22T18:03:09;4.13;;;2.45;;
76103;SDS011;64831;44.870;37.336;2023-02-22T18:05:44;6.75;;;2.42;;
76103;SDS011;64831;44.870;37.336;2023-02-22T18:08:12;8.02;;;2.30;;
76103;SDS011;64831;44.870;37.336;2023-02-22T18:10:39;5.35;;;2.08;;
76103;SDS011;64831;44.870;37.336;2023-02-22T18:13:07;5.68;;;2.72;;
76103;SDS011;64831;44.870;37.336;2023-02-22T18:15:34;8.10;;;2.25;;
76103;SDS011;64831;44.870;37.336;2023-02-22T18:18:00;7.05;;;3.10;;
76103;SDS011;64831;44.870;37.336;2023-02-22T18:20:27;10.02;;;3.08;;
76103;SDS011;64831;44.870;37.336;2023-02-22T18:22:56;3.15;;;2.08;;
76103;SDS011;64831;44.870;37.336;2023-02-22T18:25:23;8.45;;;2.50;;
76103;SDS011;64831;44.870;37.336;2023-02-22T18:27:50;8.07;;;2.67;;
76103;SDS011;64831;44.870;37.336;2023-02-22T18:30:17;11.20;;;3.20;;
76103;SDS011;64831;44.870;37.336;2023-02-22T18:32:43;7.20;;;3.30;;
76103;SDS011;64831;44.870;37.336;2023-02-22T18:35:10;12.68;;;4.82;;
76103;SDS011;64831;44.870;37.336;2023-02-22T18:37:37;5.93;;;2.00;;
76103;SDS011;64831;44.870;37.336;2023-02-22T18:40:03;10.45;;;3.22;;
76103;SDS011;64831;44.870;37.336;2023-02-22T18:42:35;5.35;;;2.63;;
76103;SDS011;64831;44.870;37.336;2023-02-22T18:45:02;9.43;;;3.60;;
76103;SDS011;64831;44.870;37.336;2023-02-22T18:47:30;8.50;;;3.17;;
76103;SDS011;64831;44.870;37.336;2023-02-22T18:50:01;5.35;;;3.17;;
76103;SDS011;64831;44.870;37.336;2023-02-22T18:52:27;6.10;;;2.85;;
76103;SDS011;64831;44.870;37.336;2023-02-22T18:54:55;13.32;;;4.78;;
76103;SDS011;64831;44.870;37.336;2023-02-22T18:57:21;19.60;;;6.97;;
76103;SDS011;64831;44.870;37.336;2023-02-22T18:59:47;11.40;;;4.80;;
76103;SDS011;64831;44.870;37.336;2023-02-22T19:02:13;16.63;;;3.30;;
76103;SDS011;64831;44.870;37.336;2023-02-22T19:04:40;15.02;;;3.78;;
76103;SDS011;64831;44.870;37.336;2023-02-22T19:07:08;13.48;;;3.53;;
76103;SDS011;64831;44.870;37.336;2023-02-22T19:09:34;8.48;;;3.60;;
76103;SDS011;64831;44.870;37.336;2023-02-22T19:12:03;5.68;;;3.00;;
76103;SDS011;64831;44.870;37.336;2023-02-22T19:14:29;7.75;;;3.50;;
76103;SDS011;64831;44.870;37.336;2023-02-22T19:16:55;8.15;;;2.38;;
76103;SDS011;64831;44.870;37.336;2023-02-22T19:19:25;13.32;;;3.72;;
76103;SDS011;64831;44.870;37.336;2023-02-22T19:21:51;5.88;;;2.88;;
76103;SDS011;64831;44.870;37.336;2023-02-22T19:24:17;4.63;;;2.65;;
76103;SDS011;64831;44.870;37.336;2023-02-22T19:26:43;8.98;;;3.28;;
76103;SDS011;64831;44.870;37.336;2023-02-22T19:29:15;7.32;;;3.10;;
76103;SDS011;64831;44.870;37.336;2023-02-22T19:31:42;10.65;;;3.25;;
76103;SDS011;64831;44.870;37.336;2023-02-22T19:34:10;7.28;;;3.08;;
76103;SDS011;64831;44.870;37.336;2023-02-22T19:36:42;8.52;;;2.90;;
76103;SDS011;64831;44.870;37.336;2023-02-22T19:39:10;5.70;;;2.80;;
76103;SDS011;64831;44.870;37.336;2023-02-22T19:41:44;5.13;;;2.53;;
76103;SDS011;64831;44.870;37.336;2023-02-22T19:44:10;11.77;;;2.90;;
76103;SDS011;64831;44.870;37.336;2023-02-22T19:46:37;14.10;;;3.22;;
76103;SDS011;64831;44.870;37.336;2023-02-22T19:49:03;7.70;;;3.03;;
76103;SDS011;64831;44.870;37.336;2023-02-22T19:51:31;6.07;;;2.05;;
76103;SDS011;64831;44.870;37.336;2023-02-22T19:53:58;7.32;;;3.03;;
76103;SDS011;64831;44.870;37.336;2023-02-22T19:56:27;5.17;;;3.20;;
76103;SDS011;64831;44.870;37.336;2023-02-22T19:58:58;11.75;;;3.00;;
76103;SDS011;64831;44.870;37.336;2023-02-22T20:01:36;8.10;;;4.13;;
76103;SDS011;64831;44.870;37.336;2023-02-22T20:04:04;9.55;;;3.42;;
76103;SDS011;64831;44.870;37.336;2023-02-22T20:06:32;15.32;;;4.20;;
76103;SDS011;64831;44.870;37.336;2023-02-22T20:09:01;10.35;;;3.85;;
76103;SDS011;64831;44.870;37.336;2023-02-22T20:11:27;19.63;;;7.18;;
76103;SDS011;64831;44.870;37.336;2023-02-22T20:13:54;8.98;;;4.32;;
76103;SDS011;64831;44.870;37.336;2023-02-22T20:16:20;11.38;;;5.05;;
76103;SDS011;64831;44.870;37.336;2023-02-22T20:18:49;7.95;;;4.15;;
76103;SDS011;64831;44.870;37.336;2023-02-22T20:21:19;9.07;;;4.35;;
76103;SDS011;64831;44.870;37.336;2023-02-22T20:23:48;13.20;;;5.38;;
76103;SDS011;64831;44.870;37.336;2023-02-22T20:26:19;23.02;;;6.95;;
76103;SDS011;64831;44.870;37.336;2023-02-22T20:28:49;17.58;;;8.43;;
76103;SDS011;64831;44.870;37.336;2023-02-22T20:31:16;18.52;;;7.50;;
76103;SDS011;64831;44.870;37.336;2023-02-22T20:33:44;13.27;;;5.70;;
76103;SDS011;64831;44.870;37.336;2023-02-22T20:36:13;9.27;;;4.45;;
76103;SDS011;64831;44.870;37.336;2023-02-22T20:38:41;6.83;;;3.23;;
76103;SDS011;64831;44.870;37.336;2023-02-22T20:41:08;13.35;;;4.00;;
76103;SDS011;64831;44.870;37.336;2023-02-22T20:43:37;10.68;;;3.40;;
76103;SDS011;64831;44.870;37.336;2023-02-22T20:46:04;10.50;;;3.83;;
76103;SDS011;64831;44.870;37.336;2023-02-22T20:48:31;7.20;;;3.38;;